sensor_id;sensor_type;location;lat;lon;timestamp;pressure;altitude;pressure_sealevel;temperature
23208;BMP180;11773;52.570;13.052;2022-08-03T00:02:25;101452.00;;;26.60
23208;BMP180;11773;52.570;13.052;2022-08-03T00:04:54;101458.00;;;26.60
23208;BMP180;11773;52.570;13.052;2022-08-03T00:07:24;101444.00;;;26.50
23208;BMP180;11773;52.570;13.052;2022-08-03T00:09:53;101451.00;;;26.50
23208;BMP180;11773;52.570;13.052;2022-08-03T00:12:22;101450.00;;;26.50
23208;BMP180;11773;52.570;13.052;2022-08-03T00:14:52;101438.00;;;26.50
23208;BMP180;11773;52.570;13.052;2022-08-03T00:17:21;101429.00;;;26.50
23208;BMP180;11773;52.570;13.052;2022-08-03T00:19:51;101430.00;;;26.50
23208;BMP180;11773;52.570;13.052;2022-08-03T00:22:20;101426.00;;;26.40
23208;BMP180;11773;52.570;13.052;2022-08-03T00:24:51;101415.00;;;26.40
23208;BMP180;11773;52.570;13.052;2022-08-03T00:27:20;101423.00;;;26.40
23208;BMP180;11773;52.570;13.052;2022-08-03T00:29:50;101418.00;;;26.40
23208;BMP180;11773;52.570;13.052;2022-08-03T00:32:21;101421.00;;;26.40
23208;BMP180;11773;52.570;13.052;2022-08-03T00:34:52;101424.00;;;26.30
23208;BMP180;11773;52.570;13.052;2022-08-03T00:37:23;101420.00;;;26.30
23208;BMP180;11773;52.570;13.052;2022-08-03T00:39:54;101414.00;;;26.30
23208;BMP180;11773;52.570;13.052;2022-08-03T00:42:25;101423.00;;;26.30
23208;BMP180;11773;52.570;13.052;2022-08-03T00:44:56;101407.00;;;26.30
23208;BMP180;11773;52.570;13.052;2022-08-03T00:47:25;101416.00;;;26.30
23208;BMP180;11773;52.570;13.052;2022-08-03T00:49:55;101422.00;;;26.30
23208;BMP180;11773;52.570;13.052;2022-08-03T00:52:24;101402.00;;;26.20
23208;BMP180;11773;52.570;13.052;2022-08-03T00:54:54;101406.00;;;26.20
23208;BMP180;11773;52.570;13.052;2022-08-03T00:57:23;101397.00;;;26.20
23208;BMP180;11773;52.570;13.052;2022-08-03T00:59:53;101400.00;;;26.20
23208;BMP180;11773;52.570;13.052;2022-08-03T01:02:23;101401.00;;;26.20
23208;BMP180;11773;52.570;13.052;2022-08-03T01:04:53;101405.00;;;26.20
23208;BMP180;11773;52.570;13.052;2022-08-03T01:07:36;101392.00;;;26.10
23208;BMP180;11773;52.570;13.052;2022-08-03T01:13:20;101392.00;;;26.00
23208;BMP180;11773;52.570;13.052;2022-08-03T01:16:18;101395.00;;;26.00
23208;BMP180;11773;52.570;13.052;2022-08-03T01:19:07;101395.00;;;25.90
23208;BMP180;11773;52.570;13.052;2022-08-03T01:21:39;101399.00;;;25.90
23208;BMP180;11773;52.570;13.052;2022-08-03T01:27:20;101388.00;;;25.80
23208;BMP180;11773;52.570;13.052;2022-08-03T01:30:07;101386.00;;;25.80
23208;BMP180;11773;52.570;13.052;2022-08-03T01:33:05;101396.00;;;25.80
23208;BMP180;11773;52.570;13.052;2022-08-03T01:36:01;101396.00;;;25.80
23208;BMP180;11773;52.570;13.052;2022-08-03T01:38:40;101388.00;;;25.80
23208;BMP180;11773;52.570;13.052;2022-08-03T01:41:24;101388.00;;;25.80
23208;BMP180;11773;52.570;13.052;2022-08-03T01:43:51;101386.00;;;25.80
23208;BMP180;11773;52.570;13.052;2022-08-03T01:46:24;101375.00;;;25.80
23208;BMP180;11773;52.570;13.052;2022-08-03T01:48:55;101375.00;;;25.80
23208;BMP180;11773;52.570;13.052;2022-08-03T01:51:28;101390.00;;;25.80
23208;BMP180;11773;52.570;13.052;2022-08-03T01:54:01;101381.00;;;25.80
23208;BMP180;11773;52.570;13.052;2022-08-03T01:56:34;101374.00;;;25.80
23208;BMP180;11773;52.570;13.052;2022-08-03T01:59:07;101368.00;;;25.80
23208;BMP180;11773;52.570;13.052;2022-08-03T02:01:39;101384.00;;;25.80
23208;BMP180;11773;52.570;13.052;2022-08-03T02:04:14;101382.00;;;25.80
23208;BMP180;11773;52.570;13.052;2022-08-03T02:06:46;101374.00;;;25.80
23208;BMP180;11773;52.570;13.052;2022-08-03T02:09:21;101383.00;;;25.80
23208;BMP180;11773;52.570;13.052;2022-08-03T02:11:54;101379.00;;;25.80
23208;BMP180;11773;52.570;13.052;2022-08-03T02:14:26;101384.00;;;25.90
23208;BMP180;11773;52.570;13.052;2022-08-03T02:16:57;101382.00;;;25.80
23208;BMP180;11773;52.570;13.052;2022-08-03T02:19:28;101391.00;;;25.80
23208;BMP180;11773;52.570;13.052;2022-08-03T02:22:02;101375.00;;;25.80
23208;BMP180;11773;52.570;13.052;2022-08-03T02:24:33;101381.00;;;25.80
23208;BMP180;11773;52.570;13.052;2022-08-03T02:27:12;101373.00;;;25.80
23208;BMP180;11773;52.570;13.052;2022-08-03T02:29:39;101387.00;;;25.70
23208;BMP180;11773;52.570;13.052;2022-08-03T02:32:13;101381.00;;;25.70
23208;BMP180;11773;52.570;13.052;2022-08-03T02:34:47;101388.00;;;25.70
23208;BMP180;11773;52.570;13.052;2022-08-03T02:37:21;101381.00;;;25.70
23208;BMP180;11773;52.570;13.052;2022-08-03T02:39:56;101387.00;;;25.70
23208;BMP180;11773;52.570;13.052;2022-08-03T02:42:27;101374.00;;;25.70
23208;BMP180;11773;52.570;13.052;2022-08-03T02:45:01;101376.00;;;25.70
23208;BMP180;11773;52.570;13.052;2022-08-03T02:47:34;101377.00;;;25.70
23208;BMP180;11773;52.570;13.052;2022-08-03T02:50:08;101382.00;;;25.70
23208;BMP180;11773;52.570;13.052;2022-08-03T02:52:41;101385.00;;;25.70
23208;BMP180;11773;52.570;13.052;2022-08-03T02:55:12;101384.00;;;25.70
23208;BMP180;11773;52.570;13.052;2022-08-03T02:57:45;101388.00;;;25.70
23208;BMP180;11773;52.570;13.052;2022-08-03T03:00:16;101382.00;;;25.70
23208;BMP180;11773;52.570;13.052;2022-08-03T03:02:48;101378.00;;;25.70
23208;BMP180;11773;52.570;13.052;2022-08-03T03:05:19;101378.00;;;25.70
23208;BMP180;11773;52.570;13.052;2022-08-03T03:07:51;101372.00;;;25.60
23208;BMP180;11773;52.570;13.052;2022-08-03T03:10:24;101377.00;;;25.60
23208;BMP180;11773;52.570;13.052;2022-08-03T03:12:56;101385.00;;;25.60
23208;BMP180;11773;52.570;13.052;2022-08-03T03:15:28;101379.00;;;25.60
23208;BMP180;11773;52.570;13.052;2022-08-03T03:18:00;101394.00;;;25.60
23208;BMP180;11773;52.570;13.052;2022-08-03T03:20:32;101374.00;;;25.50
23208;BMP180;11773;52.570;13.052;2022-08-03T03:23:04;101368.00;;;25.50
23208;BMP180;11773;52.570;13.052;2022-08-03T03:25:35;101383.00;;;25.50
23208;BMP180;11773;52.570;13.052;2022-08-03T03:28:05;101370.00;;;25.50
23208;BMP180;11773;52.570;13.052;2022-08-03T03:30:35;101388.00;;;25.50
23208;BMP180;11773;52.570;13.052;2022-08-03T03:33:04;101387.00;;;25.50
23208;BMP180;11773;52.570;13.052;2022-08-03T03:35:35;101375.00;;;25.50
23208;BMP180;11773;52.570;13.052;2022-08-03T03:38:07;101374.00;;;25.40
23208;BMP180;11773;52.570;13.052;2022-08-03T03:40:40;101378.00;;;25.40
23208;BMP180;11773;52.570;13.052;2022-08-03T03:43:11;101373.00;;;25.40
23208;BMP180;11773;52.570;13.052;2022-08-03T03:45:41;101371.00;;;25.40
23208;BMP180;11773;52.570;13.052;2022-08-03T03:48:11;101372.00;;;25.40
23208;BMP180;11773;52.570;13.052;2022-08-03T03:50:42;101370.00;;;25.30
23208;BMP180;11773;52.570;13.052;2022-08-03T03:53:13;101374.00;;;25.30
23208;BMP180;11773;52.570;13.052;2022-08-03T03:55:44;101381.00;;;25.30
23208;BMP180;11773;52.570;13.052;2022-08-03T03:58:15;101375.00;;;25.30
23208;BMP180;11773;52.570;13.052;2022-08-03T04:00:44;101392.00;;;25.30
23208;BMP180;11773;52.570;13.052;2022-08-03T04:03:14;101382.00;;;25.30
23208;BMP180;11773;52.570;13.052;2022-08-03T04:05:44;101385.00;;;25.30
23208;BMP180;11773;52.570;13.052;2022-08-03T04:08:31;101369.00;;;25.20
23208;BMP180;11773;52.570;13.052;2022-08-03T04:11:22;101374.00;;;25.20
23208;BMP180;11773;52.570;13.052;2022-08-03T04:14:17;101378.00;;;25.20
23208;BMP180;11773;52.570;13.052;2022-08-03T04:17:06;101382.00;;;25.20
23208;BMP180;11773;52.570;13.052;2022-08-03T04:19:42;101374.00;;;25.20
23208;BMP180;11773;52.570;13.052;2022-08-03T04:22:21;101378.00;;;25.10
23208;BMP180;11773;52.570;13.052;2022-08-03T04:24:58;101386.00;;;25.20
23208;BMP180;11773;52.570;13.052;2022-08-03T04:27:36;101391.00;;;25.10
23208;BMP180;11773;52.570;13.052;2022-08-03T04:30:04;101387.00;;;25.10
23208;BMP180;11773;52.570;13.052;2022-08-03T04:32:35;101386.00;;;25.10
23208;BMP180;11773;52.570;13.052;2022-08-03T04:35:07;101379.00;;;25.10
23208;BMP180;11773;52.570;13.052;2022-08-03T04:37:47;101395.00;;;25.20
23208;BMP180;11773;52.570;13.052;2022-08-03T04:40:38;101391.00;;;25.10
23208;BMP180;11773;52.570;13.052;2022-08-03T04:43:10;101373.00;;;25.10
23208;BMP180;11773;52.570;13.052;2022-08-03T04:45:43;101382.00;;;25.10
23208;BMP180;11773;52.570;13.052;2022-08-03T04:48:15;101380.00;;;25.10
23208;BMP180;11773;52.570;13.052;2022-08-03T04:50:46;101391.00;;;25.10
23208;BMP180;11773;52.570;13.052;2022-08-03T04:53:16;101387.00;;;25.10
23208;BMP180;11773;52.570;13.052;2022-08-03T04:55:47;101386.00;;;25.20
23208;BMP180;11773;52.570;13.052;2022-08-03T04:58:16;101385.00;;;25.20
23208;BMP180;11773;52.570;13.052;2022-08-03T05:00:46;101402.00;;;25.20
23208;BMP180;11773;52.570;13.052;2022-08-03T05:03:17;101398.00;;;25.20
23208;BMP180;11773;52.570;13.052;2022-08-03T05:05:48;101401.00;;;25.20
23208;BMP180;11773;52.570;13.052;2022-08-03T05:08:18;101397.00;;;25.20
23208;BMP180;11773;52.570;13.052;2022-08-03T05:10:49;101392.00;;;25.20
23208;BMP180;11773;52.570;13.052;2022-08-03T05:13:19;101398.00;;;25.30
23208;BMP180;11773;52.570;13.052;2022-08-03T05:15:48;101402.00;;;25.30
23208;BMP180;11773;52.570;13.052;2022-08-03T05:18:18;101408.00;;;25.30
23208;BMP180;11773;52.570;13.052;2022-08-03T05:20:47;101394.00;;;25.30
23208;BMP180;11773;52.570;13.052;2022-08-03T05:23:17;101398.00;;;25.30
23208;BMP180;11773;52.570;13.052;2022-08-03T05:25:47;101391.00;;;25.40
23208;BMP180;11773;52.570;13.052;2022-08-03T05:28:17;101412.00;;;25.50
23208;BMP180;11773;52.570;13.052;2022-08-03T05:30:47;101402.00;;;25.60
23208;BMP180;11773;52.570;13.052;2022-08-03T05:33:16;101397.00;;;25.80
23208;BMP180;11773;52.570;13.052;2022-08-03T05:35:46;101396.00;;;26.00
23208;BMP180;11773;52.570;13.052;2022-08-03T05:38:17;101413.00;;;26.20
23208;BMP180;11773;52.570;13.052;2022-08-03T05:40:49;101403.00;;;26.50
23208;BMP180;11773;52.570;13.052;2022-08-03T05:43:20;101414.00;;;26.70
23208;BMP180;11773;52.570;13.052;2022-08-03T05:45:49;101400.00;;;27.00
23208;BMP180;11773;52.570;13.052;2022-08-03T05:48:21;101403.00;;;27.30
23208;BMP180;11773;52.570;13.052;2022-08-03T05:50:50;101423.00;;;27.60
23208;BMP180;11773;52.570;13.052;2022-08-03T05:53:20;101414.00;;;27.90
23208;BMP180;11773;52.570;13.052;2022-08-03T05:55:49;101429.00;;;28.20
23208;BMP180;11773;52.570;13.052;2022-08-03T05:58:21;101426.00;;;28.40
23208;BMP180;11773;52.570;13.052;2022-08-03T06:00:52;101426.00;;;28.70
23208;BMP180;11773;52.570;13.052;2022-08-03T06:03:22;101419.00;;;29.00
23208;BMP180;11773;52.570;13.052;2022-08-03T06:05:53;101433.00;;;29.20
23208;BMP180;11773;52.570;13.052;2022-08-03T06:08:25;101430.00;;;29.50
23208;BMP180;11773;52.570;13.052;2022-08-03T06:10:55;101428.00;;;29.70
23208;BMP180;11773;52.570;13.052;2022-08-03T06:13:25;101436.00;;;30.00
23208;BMP180;11773;52.570;13.052;2022-08-03T06:15:54;101421.00;;;30.20
23208;BMP180;11773;52.570;13.052;2022-08-03T06:18:24;101437.00;;;30.40
23208;BMP180;11773;52.570;13.052;2022-08-03T06:20:54;101427.00;;;30.60
23208;BMP180;11773;52.570;13.052;2022-08-03T06:23:24;101433.00;;;30.80
23208;BMP180;11773;52.570;13.052;2022-08-03T06:25:55;101418.00;;;31.00
23208;BMP180;11773;52.570;13.052;2022-08-03T06:28:24;101422.00;;;31.20
23208;BMP180;11773;52.570;13.052;2022-08-03T06:30:56;101435.00;;;31.40
23208;BMP180;11773;52.570;13.052;2022-08-03T06:33:25;101426.00;;;31.60
23208;BMP180;11773;52.570;13.052;2022-08-03T06:35:57;101424.00;;;31.70
23208;BMP180;11773;52.570;13.052;2022-08-03T06:38:26;101430.00;;;31.90
23208;BMP180;11773;52.570;13.052;2022-08-03T06:40:56;101413.00;;;32.00
23208;BMP180;11773;52.570;13.052;2022-08-03T06:43:26;101421.00;;;32.20
23208;BMP180;11773;52.570;13.052;2022-08-03T06:45:57;101416.00;;;32.30
23208;BMP180;11773;52.570;13.052;2022-08-03T06:48:26;101423.00;;;32.50
23208;BMP180;11773;52.570;13.052;2022-08-03T06:50:56;101418.00;;;32.60
23208;BMP180;11773;52.570;13.052;2022-08-03T06:53:26;101416.00;;;32.80
23208;BMP180;11773;52.570;13.052;2022-08-03T06:55:55;101426.00;;;32.90
23208;BMP180;11773;52.570;13.052;2022-08-03T06:58:26;101433.00;;;33.00
23208;BMP180;11773;52.570;13.052;2022-08-03T07:00:55;101425.00;;;33.10
23208;BMP180;11773;52.570;13.052;2022-08-03T07:03:25;101412.00;;;33.30
23208;BMP180;11773;52.570;13.052;2022-08-03T07:05:55;101425.00;;;33.30
23208;BMP180;11773;52.570;13.052;2022-08-03T07:08:24;101420.00;;;33.50
23208;BMP180;11773;52.570;13.052;2022-08-03T07:10:55;101420.00;;;33.60
23208;BMP180;11773;52.570;13.052;2022-08-03T07:13:25;101424.00;;;33.70
23208;BMP180;11773;52.570;13.052;2022-08-03T07:15:55;101424.00;;;33.90
23208;BMP180;11773;52.570;13.052;2022-08-03T07:18:25;101429.00;;;34.00
23208;BMP180;11773;52.570;13.052;2022-08-03T07:20:57;101424.00;;;34.10
23208;BMP180;11773;52.570;13.052;2022-08-03T07:23:26;101424.00;;;34.20
23208;BMP180;11773;52.570;13.052;2022-08-03T07:25:56;101426.00;;;34.40
23208;BMP180;11773;52.570;13.052;2022-08-03T07:28:25;101417.00;;;34.50
23208;BMP180;11773;52.570;13.052;2022-08-03T07:30:55;101418.00;;;34.60
23208;BMP180;11773;52.570;13.052;2022-08-03T07:33:25;101424.00;;;34.70
23208;BMP180;11773;52.570;13.052;2022-08-03T07:35:54;101424.00;;;34.80
23208;BMP180;11773;52.570;13.052;2022-08-03T07:38:24;101429.00;;;34.90
23208;BMP180;11773;52.570;13.052;2022-08-03T07:40:54;101431.00;;;35.00
23208;BMP180;11773;52.570;13.052;2022-08-03T07:43:23;101436.00;;;35.20
23208;BMP180;11773;52.570;13.052;2022-08-03T07:45:53;101441.00;;;35.30
23208;BMP180;11773;52.570;13.052;2022-08-03T07:48:22;101431.00;;;35.40
23208;BMP180;11773;52.570;13.052;2022-08-03T07:50:52;101427.00;;;35.50
23208;BMP180;11773;52.570;13.052;2022-08-03T07:53:22;101429.00;;;35.60
23208;BMP180;11773;52.570;13.052;2022-08-03T07:55:51;101437.00;;;35.70
23208;BMP180;11773;52.570;13.052;2022-08-03T07:58:21;101429.00;;;35.70
23208;BMP180;11773;52.570;13.052;2022-08-03T08:00:51;101437.00;;;35.80
23208;BMP180;11773;52.570;13.052;2022-08-03T08:03:21;101424.00;;;35.90
23208;BMP180;11773;52.570;13.052;2022-08-03T08:05:51;101430.00;;;35.90
23208;BMP180;11773;52.570;13.052;2022-08-03T08:08:20;101425.00;;;36.00
23208;BMP180;11773;52.570;13.052;2022-08-03T08:10:50;101439.00;;;36.00
23208;BMP180;11773;52.570;13.052;2022-08-03T08:13:22;101423.00;;;36.10
23208;BMP180;11773;52.570;13.052;2022-08-03T08:15:51;101437.00;;;36.10
23208;BMP180;11773;52.570;13.052;2022-08-03T08:18:21;101434.00;;;36.10
23208;BMP180;11773;52.570;13.052;2022-08-03T08:20:51;101431.00;;;36.20
23208;BMP180;11773;52.570;13.052;2022-08-03T08:23:21;101430.00;;;36.20
23208;BMP180;11773;52.570;13.052;2022-08-03T08:25:53;101430.00;;;36.20
23208;BMP180;11773;52.570;13.052;2022-08-03T08:28:23;101430.00;;;36.30
23208;BMP180;11773;52.570;13.052;2022-08-03T08:30:55;101434.00;;;36.30
23208;BMP180;11773;52.570;13.052;2022-08-03T08:33:24;101434.00;;;36.30
23208;BMP180;11773;52.570;13.052;2022-08-03T08:35:55;101432.00;;;36.40
23208;BMP180;11773;52.570;13.052;2022-08-03T08:38:26;101429.00;;;36.40
23208;BMP180;11773;52.570;13.052;2022-08-03T08:40:55;101420.00;;;36.40
23208;BMP180;11773;52.570;13.052;2022-08-03T08:43:26;101430.00;;;36.50
23208;BMP180;11773;52.570;13.052;2022-08-03T08:45:58;101441.00;;;36.50
23208;BMP180;11773;52.570;13.052;2022-08-03T08:48:29;101430.00;;;36.60
23208;BMP180;11773;52.570;13.052;2022-08-03T08:51:00;101435.00;;;36.60
23208;BMP180;11773;52.570;13.052;2022-08-03T08:53:33;101429.00;;;36.60
23208;BMP180;11773;52.570;13.052;2022-08-03T08:56:04;101441.00;;;36.60
23208;BMP180;11773;52.570;13.052;2022-08-03T08:58:37;101425.00;;;36.60
23208;BMP180;11773;52.570;13.052;2022-08-03T09:01:09;101431.00;;;36.60
23208;BMP180;11773;52.570;13.052;2022-08-03T09:03:38;101430.00;;;36.60
23208;BMP180;11773;52.570;13.052;2022-08-03T09:06:08;101417.00;;;36.60
23208;BMP180;11773;52.570;13.052;2022-08-03T09:08:38;101416.00;;;36.60
23208;BMP180;11773;52.570;13.052;2022-08-03T09:11:07;101424.00;;;36.70
23208;BMP180;11773;52.570;13.052;2022-08-03T09:13:39;101414.00;;;36.70
23208;BMP180;11773;52.570;13.052;2022-08-03T09:16:18;101416.00;;;36.70
23208;BMP180;11773;52.570;13.052;2022-08-03T09:18:53;101411.00;;;36.80
23208;BMP180;11773;52.570;13.052;2022-08-03T09:21:26;101426.00;;;36.80
23208;BMP180;11773;52.570;13.052;2022-08-03T09:24:03;101425.00;;;36.80
23208;BMP180;11773;52.570;13.052;2022-08-03T09:26:37;101413.00;;;36.80
23208;BMP180;11773;52.570;13.052;2022-08-03T09:29:09;101430.00;;;36.80
23208;BMP180;11773;52.570;13.052;2022-08-03T09:31:44;101426.00;;;36.80
23208;BMP180;11773;52.570;13.052;2022-08-03T09:34:16;101416.00;;;36.80
23208;BMP180;11773;52.570;13.052;2022-08-03T09:36:49;101414.00;;;36.80
23208;BMP180;11773;52.570;13.052;2022-08-03T09:39:23;101413.00;;;36.80
23208;BMP180;11773;52.570;13.052;2022-08-03T09:42:15;101407.00;;;36.80
23208;BMP180;11773;52.570;13.052;2022-08-03T09:44:52;101417.00;;;36.80
23208;BMP180;11773;52.570;13.052;2022-08-03T09:47:33;101417.00;;;36.80
23208;BMP180;11773;52.570;13.052;2022-08-03T09:50:08;101422.00;;;36.90
23208;BMP180;11773;52.570;13.052;2022-08-03T09:52:40;101408.00;;;36.90
23208;BMP180;11773;52.570;13.052;2022-08-03T09:55:13;101410.00;;;37.00
23208;BMP180;11773;52.570;13.052;2022-08-03T09:57:45;101418.00;;;37.00
23208;BMP180;11773;52.570;13.052;2022-08-03T10:00:16;101412.00;;;37.10
23208;BMP180;11773;52.570;13.052;2022-08-03T10:02:46;101414.00;;;37.20
23208;BMP180;11773;52.570;13.052;2022-08-03T10:05:22;101403.00;;;37.20
23208;BMP180;11773;52.570;13.052;2022-08-03T10:07:51;101404.00;;;37.20
23208;BMP180;11773;52.570;13.052;2022-08-03T10:10:21;101400.00;;;37.30
23208;BMP180;11773;52.570;13.052;2022-08-03T10:12:52;101399.00;;;37.30
23208;BMP180;11773;52.570;13.052;2022-08-03T10:15:22;101389.00;;;37.30
23208;BMP180;11773;52.570;13.052;2022-08-03T10:17:54;101407.00;;;37.30
23208;BMP180;11773;52.570;13.052;2022-08-03T10:20:24;101396.00;;;37.30
23208;BMP180;11773;52.570;13.052;2022-08-03T10:22:54;101395.00;;;37.30
23208;BMP180;11773;52.570;13.052;2022-08-03T10:25:25;101379.00;;;37.40
23208;BMP180;11773;52.570;13.052;2022-08-03T10:28:00;101388.00;;;37.40
23208;BMP180;11773;52.570;13.052;2022-08-03T10:30:33;101396.00;;;37.40
23208;BMP180;11773;52.570;13.052;2022-08-03T10:33:16;101382.00;;;37.50
23208;BMP180;11773;52.570;13.052;2022-08-03T10:35:43;101380.00;;;37.50
23208;BMP180;11773;52.570;13.052;2022-08-03T10:38:28;101393.00;;;37.60
23208;BMP180;11773;52.570;13.052;2022-08-03T10:40:57;101372.00;;;37.60
23208;BMP180;11773;52.570;13.052;2022-08-03T10:45:56;101390.00;;;37.50
23208;BMP180;11773;52.570;13.052;2022-08-03T10:48:27;101383.00;;;37.50
23208;BMP180;11773;52.570;13.052;2022-08-03T10:50:58;101373.00;;;37.50
23208;BMP180;11773;52.570;13.052;2022-08-03T10:53:39;101380.00;;;37.50
23208;BMP180;11773;52.570;13.052;2022-08-03T11:02:18;101363.00;;;37.50
23208;BMP180;11773;52.570;13.052;2022-08-03T11:05:03;101370.00;;;37.60
23208;BMP180;11773;52.570;13.052;2022-08-03T11:07:24;101365.00;;;37.60
23208;BMP180;11773;52.570;13.052;2022-08-03T11:09:55;101348.00;;;37.70
23208;BMP180;11773;52.570;13.052;2022-08-03T11:12:31;101346.00;;;37.70
23208;BMP180;11773;52.570;13.052;2022-08-03T11:15:06;101358.00;;;37.80
23208;BMP180;11773;52.570;13.052;2022-08-03T11:17:36;101346.00;;;37.80
23208;BMP180;11773;52.570;13.052;2022-08-03T11:20:08;101361.00;;;37.80
23208;BMP180;11773;52.570;13.052;2022-08-03T11:22:49;101344.00;;;37.80
23208;BMP180;11773;52.570;13.052;2022-08-03T11:25:20;101352.00;;;37.90
23208;BMP180;11773;52.570;13.052;2022-08-03T11:28:23;101362.00;;;37.90
23208;BMP180;11773;52.570;13.052;2022-08-03T11:30:28;101349.00;;;37.90
23208;BMP180;11773;52.570;13.052;2022-08-03T11:32:59;101344.00;;;37.90
23208;BMP180;11773;52.570;13.052;2022-08-03T11:35:33;101358.00;;;37.90
23208;BMP180;11773;52.570;13.052;2022-08-03T11:38:06;101359.00;;;38.00
23208;BMP180;11773;52.570;13.052;2022-08-03T11:46:12;101347.00;;;38.10
23208;BMP180;11773;52.570;13.052;2022-08-03T11:48:49;101344.00;;;38.10
23208;BMP180;11773;52.570;13.052;2022-08-03T11:51:30;101350.00;;;38.10
23208;BMP180;11773;52.570;13.052;2022-08-03T11:54:03;101350.00;;;38.10
23208;BMP180;11773;52.570;13.052;2022-08-03T11:56:47;101344.00;;;38.10
23208;BMP180;11773;52.570;13.052;2022-08-03T11:59:17;101347.00;;;38.00
23208;BMP180;11773;52.570;13.052;2022-08-03T12:01:49;101356.00;;;38.10
23208;BMP180;11773;52.570;13.052;2022-08-03T12:04:18;101335.00;;;38.10
23208;BMP180;11773;52.570;13.052;2022-08-03T12:07:01;101351.00;;;38.10
23208;BMP180;11773;52.570;13.052;2022-08-03T12:09:31;101351.00;;;38.10
23208;BMP180;11773;52.570;13.052;2022-08-03T12:12:03;101331.00;;;38.10
23208;BMP180;11773;52.570;13.052;2022-08-03T12:14:32;101334.00;;;38.20
23208;BMP180;11773;52.570;13.052;2022-08-03T12:17:04;101351.00;;;38.20
23208;BMP180;11773;52.570;13.052;2022-08-03T12:19:42;101349.00;;;38.20
23208;BMP180;11773;52.570;13.052;2022-08-03T12:22:12;101337.00;;;38.20
23208;BMP180;11773;52.570;13.052;2022-08-03T12:24:44;101337.00;;;38.20
23208;BMP180;11773;52.570;13.052;2022-08-03T12:27:26;101329.00;;;38.20
23208;BMP180;11773;52.570;13.052;2022-08-03T12:29:59;101323.00;;;38.30
23208;BMP180;11773;52.570;13.052;2022-08-03T12:32:30;101334.00;;;38.30
23208;BMP180;11773;52.570;13.052;2022-08-03T12:35:00;101338.00;;;38.30
23208;BMP180;11773;52.570;13.052;2022-08-03T12:37:31;101338.00;;;38.40
23208;BMP180;11773;52.570;13.052;2022-08-03T12:40:03;101340.00;;;38.40
23208;BMP180;11773;52.570;13.052;2022-08-03T12:42:38;101326.00;;;38.40
23208;BMP180;11773;52.570;13.052;2022-08-03T12:45:28;101330.00;;;38.40
23208;BMP180;11773;52.570;13.052;2022-08-03T12:48:02;101327.00;;;38.40
23208;BMP180;11773;52.570;13.052;2022-08-03T12:50:35;101315.00;;;38.40
23208;BMP180;11773;52.570;13.052;2022-08-03T12:53:08;101307.00;;;38.40
23208;BMP180;11773;52.570;13.052;2022-08-03T12:55:38;101312.00;;;38.40
23208;BMP180;11773;52.570;13.052;2022-08-03T12:58:11;101301.00;;;38.40
23208;BMP180;11773;52.570;13.052;2022-08-03T13:00:55;101293.00;;;38.50
23208;BMP180;11773;52.570;13.052;2022-08-03T13:03:25;101310.00;;;38.50
23208;BMP180;11773;52.570;13.052;2022-08-03T13:05:56;101297.00;;;38.50
23208;BMP180;11773;52.570;13.052;2022-08-03T13:08:27;101306.00;;;38.60
23208;BMP180;11773;52.570;13.052;2022-08-03T13:10:56;101315.00;;;38.60
23208;BMP180;11773;52.570;13.052;2022-08-03T13:13:39;101320.00;;;38.60
23208;BMP180;11773;52.570;13.052;2022-08-03T13:16:08;101306.00;;;38.60
23208;BMP180;11773;52.570;13.052;2022-08-03T13:18:40;101306.00;;;38.60
23208;BMP180;11773;52.570;13.052;2022-08-03T13:21:09;101309.00;;;38.70
23208;BMP180;11773;52.570;13.052;2022-08-03T13:23:39;101313.00;;;38.70
23208;BMP180;11773;52.570;13.052;2022-08-03T13:26:10;101298.00;;;38.70
23208;BMP180;11773;52.570;13.052;2022-08-03T13:28:40;101293.00;;;38.80
23208;BMP180;11773;52.570;13.052;2022-08-03T13:31:09;101308.00;;;38.80
23208;BMP180;11773;52.570;13.052;2022-08-03T13:33:39;101305.00;;;38.80
23208;BMP180;11773;52.570;13.052;2022-08-03T13:36:08;101303.00;;;38.80
23208;BMP180;11773;52.570;13.052;2022-08-03T13:38:38;101297.00;;;38.80
23208;BMP180;11773;52.570;13.052;2022-08-03T13:41:08;101305.00;;;38.80
23208;BMP180;11773;52.570;13.052;2022-08-03T13:43:38;101305.00;;;38.80
23208;BMP180;11773;52.570;13.052;2022-08-03T13:46:07;101294.00;;;38.80
23208;BMP180;11773;52.570;13.052;2022-08-03T13:48:37;101287.00;;;38.80
23208;BMP180;11773;52.570;13.052;2022-08-03T13:51:06;101296.00;;;38.80
23208;BMP180;11773;52.570;13.052;2022-08-03T13:53:38;101289.00;;;38.80
23208;BMP180;11773;52.570;13.052;2022-08-03T13:56:07;101293.00;;;38.90
23208;BMP180;11773;52.570;13.052;2022-08-03T13:58:37;101287.00;;;38.90
23208;BMP180;11773;52.570;13.052;2022-08-03T14:01:06;101283.00;;;38.90
23208;BMP180;11773;52.570;13.052;2022-08-03T14:03:36;101274.00;;;38.90
23208;BMP180;11773;52.570;13.052;2022-08-03T14:06:06;101270.00;;;39.00
23208;BMP180;11773;52.570;13.052;2022-08-03T14:08:35;101281.00;;;39.00
23208;BMP180;11773;52.570;13.052;2022-08-03T14:11:05;101273.00;;;39.00
23208;BMP180;11773;52.570;13.052;2022-08-03T14:13:34;101277.00;;;39.00
23208;BMP180;11773;52.570;13.052;2022-08-03T14:16:04;101268.00;;;39.00
23208;BMP180;11773;52.570;13.052;2022-08-03T14:18:35;101266.00;;;39.10
23208;BMP180;11773;52.570;13.052;2022-08-03T14:21:07;101265.00;;;39.10
23208;BMP180;11773;52.570;13.052;2022-08-03T14:23:36;101266.00;;;39.10
23208;BMP180;11773;52.570;13.052;2022-08-03T14:26:07;101272.00;;;39.10
23208;BMP180;11773;52.570;13.052;2022-08-03T14:28:37;101270.00;;;39.10
23208;BMP180;11773;52.570;13.052;2022-08-03T14:31:07;101253.00;;;39.00
23208;BMP180;11773;52.570;13.052;2022-08-03T14:33:38;101265.00;;;39.00